Latest Coastal Weather Observations for Browse Island

IDD60701

Issued at 12:01 pm CST Friday 28 April 2017 (issued every 10 minutes, with the page automatically refreshed every 10 minutes)

About coastal observations | Map of coastal stations | Coastal observations for NT | Marine services | Other Formats
Station Details ID: 200784 Name: BROWSE ISLAND Lat: -14.11 Lon: 123.55 Height: 3.7 m
Data from the previous 72 hours. | See also: Recent months at Browse Island
Date/Time
CST
Temp
°C
Wind Pressure Rain since
9am
mm
Weather Cloud Vis
km
Sea
Height
m
Swell
Dir  Spd
kts
Gust
kts
hPa Trend Height
m
Period
s
Dir
28/12:00pm 30.3 ESE 17 20 1012.3 - - - - - - - - -
28/11:30am 30.8 ESE 17 21 1012.5 - - - - - - - - -
28/11:00am 30.8 ESE 16 21 1012.5 - - - - - - - - -
28/10:30am 30.2 ESE 18 22 1012.3 - - - - - - - - -
28/10:00am 30.3 ESE 19 23 1012.1 - - - - - - - - -
28/09:30am 30.5 ESE 17 20 1011.9 - - - - - - - - -
28/09:00am 30.4 SE 11 17 1011.7 - - - - - - - - -
28/08:30am 28.2 SE 14 19 1011.6 - - - - - - - - -
28/08:00am 28.6 SE 12 16 1011.3 - - - - - - - - -
28/07:30am 29.0 SSE 9 11 1011.3 - - - - - - - - -
28/07:00am 29.0 S 9 10 1011.1 - - - - - - - - -
28/06:30am 28.9 S 9 10 1010.9 - - - - - - - - -
28/06:00am 28.9 S 7 8 1010.9 - - - - - - - - -
28/05:30am 29.0 S 6 8 1010.7 - - - - - - - - -
28/05:00am 28.9 S 6 7 1010.7 - - - - - - - - -
28/04:30am 29.0 SSE 4 5 1010.7 - - - - - - - - -
28/04:00am 28.9 CALM 0 0 1010.8 - - - - - - - - -
28/03:30am 28.6 CALM 0 0 1011.0 - - - - - - - - -
28/03:00am 28.8 CALM 0 0 1010.7 - - - - - - - - -
28/02:30am 29.0 E 1 3 1010.9 - - - - - - - - -
28/02:00am 29.1 E 4 5 1011.0 - - - - - - - - -
28/01:30am 29.2 NE 3 4 1011.3 - - - - - - - - -
28/01:00am 29.4 NE 6 8 1011.5 - - - - - - - - -
28/12:30am 29.4 NE 7 9 1011.7 - - - - - - - - -
28/12:00am 29.6 NNE 8 11 1011.8 - - - - - - - - -
 
Date/Time
CST
Temp
°C
Wind Pressure Rain since
9am
mm
Weather Cloud Vis
km
Sea
Height
m
Swell
Dir  Spd
kts
Gust
kts
hPa Trend Height
m
Period
s
Dir
27/11:30pm 29.7 NNE 11 13 1011.8 - - - - - - - - -
27/11:00pm 29.8 NNE 12 14 1011.9 - - - - - - - - -
27/10:30pm 29.9 NNE 12 14 1011.8 - - - - - - - - -
27/10:00pm 29.9 NE 12 14 1011.7 - - - - - - - - -
27/09:30pm 29.9 NE 11 13 1011.6 - - - - - - - - -
27/09:00pm 30.0 NNE 10 12 1011.3 - - - - - - - - -
27/08:30pm 29.8 NE 10 12 1010.9 - - - - - - - - -
27/08:00pm 29.9 NE 11 14 1010.5 - - - - - - - - -
27/07:30pm 30.1 NE 12 16 1010.1 - - - - - - - - -
27/07:00pm 30.0 NE 14 17 1009.7 - - - - - - - - -
27/06:30pm 30.4 NE 16 21 1009.4 - - - - - - - - -
27/06:00pm 30.7 NE 19 23 1009.1 - - - - - - - - -
27/05:30pm 30.9 NE 19 22 1008.9 - - - - - - - - -
27/05:00pm 31.0 ENE 17 22 1008.8 - - - - - - - - -
27/04:30pm 31.2 ENE 14 17 1008.8 - - - - - - - - -
27/04:00pm 31.1 E 12 14 1008.8 - - - - - - - - -
27/03:30pm 31.3 E 11 12 1008.8 - - - - - - - - -
27/03:00pm 31.7 E 9 11 1009.0 - - - - - - - - -
27/02:30pm 30.9 ESE 7 8 1009.1 - - - - - - - - -
27/02:00pm 31.2 ESE 7 9 1009.6 - - - - - - - - -
27/01:30pm 31.7 E 6 7 1010.1 - - - - - - - - -
27/01:00pm 31.3 SE 6 7 1010.5 - - - - - - - - -
27/12:30pm 31.2 ESE 6 8 1011.1 - - - - - - - - -
27/12:00pm 31.4 ESE 6 7 1011.4 - - - - - - - - -
27/11:30am 31.2 ESE 6 7 1011.9 - - - - - - - - -
27/11:00am 31.2 SSE 5 6 1011.8 - - - - - - - - -
27/10:30am 31.0 SSE 4 4 1011.7 - - - - - - - - -
27/10:00am 30.8 S 3 4 1011.6 - - - - - - - - -
27/09:30am 30.5 CALM 0 0 1011.4 - - - - - - - - -
27/09:00am 30.2 SW 4 4 1011.4 - - - - - - - - -
27/08:30am 30.0 SW 4 5 1011.2 - - - - - - - - -
27/08:00am 29.8 WSW 5 5 1011.0 - - - - - - - - -
27/07:30am 29.7 WSW 4 6 1010.8 - - - - - - - - -
27/07:00am 29.6 WNW 4 4 1010.3 - - - - - - - - -
27/06:30am 29.7 SW 4 4 1009.8 - - - - - - - - -
27/06:00am 29.7 SW 3 4 1009.7 - - - - - - - - -
27/05:30am 29.8 SW 4 4 1009.5 - - - - - - - - -
27/05:00am 30.0 SW 5 6 1009.6 - - - - - - - - -
27/04:30am 30.0 SW 7 8 1009.5 - - - - - - - - -
27/04:00am 29.8 SSW 9 11 1009.7 - - - - - - - - -
27/03:30am 29.4 SSW 10 12 1010.0 - - - - - - - - -
27/03:00am 29.8 SSW 11 13 1010.3 - - - - - - - - -
27/02:30am 29.9 S 7 8 1010.5 - - - - - - - - -
27/02:00am 29.9 S 7 8 1010.8 - - - - - - - - -
27/01:30am 29.8 S 7 8 1011.1 - - - - - - - - -
27/01:00am 29.7 S 7 8 1011.4 - - - - - - - - -
27/12:30am 29.6 SSE 7 8 1011.6 - - - - - - - - -
27/12:00am 29.7 SSE 8 9 1011.7 - - - - - - - - -
 
Date/Time
CST
Temp
°C
Wind Pressure Rain since
9am
mm
Weather Cloud Vis
km
Sea
Height
m
Swell
Dir  Spd
kts
Gust
kts
hPa Trend Height
m
Period
s
Dir
26/11:30pm 29.9 S 8 9 1011.9 - - - - - - - - -
26/11:00pm 29.6 S 8 8 1012.1 - - - - - - - - -
26/10:30pm 29.6 SSE 4 6 1011.9 - - - - - - - - -
26/10:00pm 29.7 SSE 4 5 1011.7 - - - - - - - - -
26/09:30pm 29.7 SSE 6 6 1011.4 - - - - - - - - -
26/09:00pm 29.7 SSE 7 7 1011.0 - - - - - - - - -
26/08:30pm 29.7 SSE 6 7 1010.6 - - - - - - - - -
26/08:00pm 29.5 SSE 6 7 1010.0 - - - - - - - - -
26/07:30pm 29.7 SSE 6 6 1009.6 - - - - - - - - -
26/07:00pm 29.6 SE 6 7 1009.4 - - - - - - - - -
26/06:30pm 29.9 SE 8 9 1009.2 - - - - - - - - -
26/06:00pm 30.1 SE 7 9 1008.9 - - - - - - - - -
26/05:30pm 30.1 SE 7 9 1008.5 - - - - - - - - -
26/05:00pm 30.3 SE 7 8 1008.4 - - - - - - - - -
26/04:30pm 30.5 SE 7 9 1008.4 - - - - - - - - -
26/04:00pm 30.2 SE 9 11 1008.7 - - - - - - - - -
26/03:30pm 30.5 SE 10 11 1008.7 - - - - - - - - -
26/03:00pm 30.6 SE 9 11 1008.9 - - - - - - - - -
26/02:30pm 31.0 SE 8 10 1009.1 - - - - - - - - -
26/02:00pm 31.3 SE 9 11 1009.4 - - - - - - - - -
26/01:30pm 30.3 SE 8 10 1009.7 - - - - - - - - -
26/01:00pm 30.7 SE 8 10 1010.1 - - - - - - - - -
26/12:30pm 30.4 SE 8 9 1010.6 - - - - - - - - -
26/12:00pm 30.5 SE 9 11 1011.0 - - - - - - - - -
26/11:30am 30.1 SE 10 12 1011.3 - - - - - - - - -
26/11:00am 29.8 SSE 12 14 1011.4 - - - - - - - - -
26/10:30am 29.7 SSE 13 15 1011.4 - - - - - - - - -
26/10:00am 29.4 SSE 14 15 1011.3 - - - - - - - - -
26/09:30am 29.5 S 9 11 1011.2 - - - - - - - - -
26/09:00am 29.4 S 10 12 1011.2 - - - - - - - - -
26/08:30am 29.4 SSW 9 11 1011.2 - - - - - - - - -
26/08:00am 29.3 SSW 9 11 1011.0 - - - - - - - - -
26/07:30am 29.1 SSW 9 11 1010.9 - - - - - - - - -
26/07:00am 29.1 SW 8 9 1010.6 - - - - - - - - -
26/06:30am 29.2 SW 7 8 1010.3 - - - - - - - - -
26/06:00am 29.2 SW 7 8 1010.3 - - - - - - - - -
26/05:30am 29.3 SW 6 8 1010.4 - - - - - - - - -
26/05:00am 29.2 SW 7 8 1010.6 - - - - - - - - -
26/04:30am 29.2 SW 8 10 1010.7 - - - - - - - - -
26/04:00am 29.3 SW 7 9 1010.8 - - - - - - - - -
26/03:30am 29.2 SW 8 9 1010.9 - - - - - - - - -
26/03:00am 29.2 WSW 8 9 1011.0 - - - - - - - - -
26/02:30am 29.2 WSW 7 9 1011.4 - - - - - - - - -
26/02:00am 29.3 WSW 7 8 1011.6 - - - - - - - - -
26/01:30am 29.3 WSW 5 6 1011.8 - - - - - - - - -
26/01:00am 29.3 SW 5 6 1011.9 - - - - - - - - -
26/12:30am 29.5 SW 6 7 1012.0 - - - - - - - - -
26/12:00am 29.4 SSW 7 9 1012.2 - - - - - - - - -
 
Date/Time
CST
Temp
°C
Wind Pressure Rain since
9am
mm
Weather Cloud Vis
km
Sea
Height
m
Swell
Dir  Spd
kts
Gust
kts
hPa Trend Height
m
Period
s
Dir
25/11:30pm 29.4 SSW 7 9 1012.3 - - - - - - - - -
25/11:00pm 29.6 SSW 8 9 1012.2 - - - - - - - - -
25/10:30pm 29.7 SSW 6 7 1012.4 - - - - - - - - -
25/10:00pm 29.8 SSW 6 8 1012.3 - - - - - - - - -
25/09:30pm 29.9 SW 5 6 1012.2 - - - - - - - - -
25/09:00pm 30.0 SSW 7 8 1011.8 - - - - - - - - -
25/08:30pm 29.8 SSW 7 8 1011.2 - - - - - - - - -
25/08:00pm 29.7 SSW 8 9 1010.8 - - - - - - - - -
25/07:30pm 29.8 SSW 8 9 1010.3 - - - - - - - - -
25/07:00pm 29.9 SSW 7 8 1010.1 - - - - - - - - -
25/06:30pm 29.7 SSW 8 10 1009.9 - - - - - - - - -
25/06:00pm 29.8 SSW 10 11 1009.6 - - - - - - - - -
25/05:30pm 29.9 SSW 10 12 1009.4 - - - - - - - - -
25/05:00pm 29.8 S 10 12 1009.2 - - - - - - - - -
25/04:30pm 29.6 S 10 12 1009.3 - - - - - - - - -
25/04:00pm 29.6 S 10 11 1009.3 - - - - - - - - -
25/03:30pm 29.7 S 9 11 1009.5 - - - - - - - - -
25/03:00pm 29.7 S 9 10 1009.8 - - - - - - - - -
25/02:30pm 29.7 SSW 10 11 1010.0 - - - - - - - - -
25/02:00pm 29.7 S 11 12 1010.6 - - - - - - - - -

Other Formats:

Comma delimited format used in spreadsheet applications
http://www.bom.gov.au/fwo/IDD60701/IDD60701.94103.axf

JavaScript Object Notation format (JSON) in row-major order
http://www.bom.gov.au/fwo/IDD60701/IDD60701.94103.json